KCVN/CVN METAR and TAF weather

Enter ICAO airport designator
Station Type Date Time Source
KCVN METAR 2022/06/26 07:56 UTC NOAA

KCVN 260756Z AUTO 03019G24KT 10SM CLR 19/14 A3029 RMK AO2 PK WND 03026/0740 SLP210 T01890139


Station Type Date Time Source
KCVN Decoded METAR 2022/06/26 07:56 UTC NOAA

Clovis, Clovis Municipal Airport, NM, United States (KCVN) 34-26N 103-05W
Jun 26, 2022 - 03:56 AM EDT / 2022.06.26 0756 UTC
Wind: from the NNE (030 degrees) at 22 MPH (19 KT) gusting to 28 MPH (24 KT):0
Visibility: 10 mile(s):0
Sky conditions: clear
Temperature: 66.0 F (18.9 C)
Dew Point: 57.0 F (13.9 C)
Relative Humidity: 72%
Pressure (altimeter): 30.29 in. Hg (1025 hPa)
ob: KCVN 260756Z AUTO 03019G24KT 10SM CLR 19/14 A3029 RMK AO2 PK WND 03026/0740 SLP210 T01890139
cycle: 8

Station Type Date Time Source
KCVN TAF UTC NOAA

Error!

Example: see airport list